createdAt,value
2018-10-19T00:01:16.074Z,4.45
2018-10-19T00:03:44.643Z,4.45
2018-10-19T00:06:13.534Z,4.42
2018-10-19T00:08:42.119Z,4.40
2018-10-19T00:11:10.657Z,4.37
2018-10-19T00:13:39.226Z,4.35
2018-10-19T00:16:07.714Z,4.35
2018-10-19T00:18:36.724Z,4.37
2018-10-19T00:21:05.790Z,4.35
2018-10-19T00:23:34.706Z,4.31
2018-10-19T00:26:03.194Z,4.24
2018-10-19T00:28:32.239Z,4.24
2018-10-19T00:31:00.768Z,4.18
2018-10-19T00:33:29.498Z,4.16
2018-10-19T00:35:57.962Z,4.16
2018-10-19T00:38:26.548Z,4.13
2018-10-19T00:40:55.237Z,4.08
2018-10-19T00:43:23.696Z,3.61
2018-10-19T00:45:52.502Z,4.03
2018-10-19T00:48:21.365Z,4.03
2018-10-19T00:50:50.054Z,4.02
2018-10-19T00:53:18.514Z,4.01
2018-10-19T00:55:47.052Z,3.97
2018-10-19T00:58:15.606Z,3.94
2018-10-19T01:00:44.203Z,3.97
2018-10-19T01:03:13.015Z,3.99
2018-10-19T01:05:41.889Z,4.00
2018-10-19T01:08:11.040Z,4.00
2018-10-19T01:10:39.503Z,3.96
2018-10-19T01:13:08.338Z,3.95
2018-10-19T01:15:37.669Z,3.94
2018-10-19T01:18:06.372Z,3.93
2018-10-19T01:20:34.886Z,3.92
2018-10-19T01:23:03.421Z,3.94
2018-10-19T01:25:32.046Z,3.93
2018-10-19T01:28:00.510Z,3.92
2018-10-19T01:30:29.454Z,3.86
2018-10-19T01:32:58.061Z,3.81
2018-10-19T01:35:26.580Z,3.76
2018-10-19T01:37:55.261Z,3.74
2018-10-19T01:40:23.862Z,3.71
2018-10-19T01:42:52.486Z,3.68
2018-10-19T01:45:21.026Z,3.68
2018-10-19T01:47:49.780Z,3.08
2018-10-19T01:50:18.318Z,3.69
2018-10-19T01:52:46.998Z,3.71
2018-10-19T01:55:15.474Z,3.71
2018-10-19T01:57:44.050Z,3.72
2018-10-19T02:00:12.568Z,3.72
2018-10-19T02:02:41.030Z,3.74
2018-10-19T02:05:09.913Z,3.73
2018-10-19T02:07:38.386Z,3.70
2018-10-19T02:10:07.499Z,3.68
2018-10-19T02:12:36.090Z,3.69
2018-10-19T02:15:04.860Z,3.69
2018-10-19T02:17:33.253Z,3.71
2018-10-19T02:20:01.823Z,3.71
2018-10-19T02:22:30.483Z,3.74
2018-10-19T02:24:58.986Z,3.71
2018-10-19T02:27:27.570Z,3.70
2018-10-19T02:29:56.127Z,3.71
2018-10-19T02:32:24.900Z,3.74
2018-10-19T02:34:53.528Z,3.77
2018-10-19T02:37:22.122Z,3.78
2018-10-19T02:39:50.655Z,3.80
2018-10-19T02:42:19.171Z,3.80
2018-10-19T02:44:47.958Z,3.53
2018-10-19T02:47:16.602Z,3.83
2018-10-19T02:49:45.397Z,3.84
2018-10-19T02:52:13.872Z,3.86
2018-10-19T02:54:42.502Z,3.88
2018-10-19T02:57:11.137Z,3.89
2018-10-19T02:59:40.249Z,3.89
2018-10-19T03:02:09.021Z,3.94
2018-10-19T03:04:37.603Z,4.02
2018-10-19T03:07:07.204Z,4.07
2018-10-19T03:09:35.691Z,4.24
2018-10-19T03:12:04.419Z,4.36
2018-10-19T03:14:32.883Z,4.44
2018-10-19T03:17:01.524Z,4.48
2018-10-19T03:19:30.038Z,4.50
2018-10-19T03:21:58.602Z,4.54
2018-10-19T03:24:27.322Z,4.58
2018-10-19T03:26:55.886Z,4.61
2018-10-19T03:29:24.577Z,4.64
2018-10-19T03:31:53.155Z,4.66
2018-10-19T03:34:21.882Z,4.71
2018-10-19T03:36:50.344Z,4.73
2018-10-19T03:39:18.938Z,4.72
2018-10-19T03:41:47.481Z,4.69
2018-10-19T03:44:15.930Z,4.66
2018-10-19T03:46:44.654Z,4.65
2018-10-19T03:49:13.206Z,4.62
2018-10-19T03:51:41.854Z,4.59
2018-10-19T03:54:10.306Z,4.57
2018-10-19T03:56:38.932Z,4.55
2018-10-19T03:59:07.595Z,4.55
2018-10-19T04:01:36.163Z,4.56
2018-10-19T04:04:05.539Z,4.03
2018-10-19T04:06:34.121Z,4.50
2018-10-19T04:09:02.677Z,4.48
2018-10-19T04:11:31.224Z,4.43
2018-10-19T04:13:59.893Z,4.39
2018-10-19T04:16:28.454Z,4.37
2018-10-19T04:18:57.143Z,4.36
2018-10-19T04:21:25.836Z,4.28
2018-10-19T04:23:54.307Z,4.37
2018-10-19T04:26:22.990Z,4.36
2018-10-19T04:28:51.470Z,4.33
2018-10-19T04:31:20.170Z,4.32
2018-10-19T04:33:48.655Z,4.30
2018-10-19T04:36:17.114Z,4.27
2018-10-19T04:38:45.610Z,4.26
2018-10-19T04:41:14.206Z,4.25
2018-10-19T04:43:43.710Z,3.97
2018-10-19T04:46:12.170Z,4.25
2018-10-19T04:48:40.978Z,4.27
2018-10-19T04:51:09.625Z,4.26
2018-10-19T04:53:38.498Z,4.22
2018-10-19T04:56:07.110Z,4.23
2018-10-19T04:58:35.639Z,4.25
2018-10-19T05:01:04.311Z,4.22
2018-10-19T05:03:32.874Z,4.19
2018-10-19T05:06:02.242Z,4.11
2018-10-19T05:08:30.666Z,4.14
2018-10-19T05:10:59.523Z,4.14
2018-10-19T05:13:28.035Z,4.09
2018-10-19T05:15:56.816Z,4.15
2018-10-19T05:18:25.666Z,4.17
2018-10-19T05:20:54.578Z,4.22
2018-10-19T05:23:23.110Z,4.12
2018-10-19T05:25:53.538Z,4.27
2018-10-19T05:28:22.094Z,4.24
2018-10-19T05:30:51.223Z,4.27
2018-10-19T05:33:19.822Z,4.16
2018-10-19T05:35:48.420Z,4.17
2018-10-19T05:38:17.146Z,4.15
2018-10-19T05:40:45.814Z,4.15
2018-10-19T05:43:14.715Z,4.15
2018-10-19T05:45:43.290Z,4.10
2018-10-19T05:48:11.878Z,4.08
2018-10-19T05:50:40.448Z,4.13
2018-10-19T05:53:08.966Z,4.16
2018-10-19T05:55:37.722Z,4.17
2018-10-19T05:58:06.886Z,4.14
2018-10-19T06:00:35.702Z,4.12
2018-10-19T06:03:04.202Z,4.04
2018-10-19T06:05:33.071Z,3.97
2018-10-19T06:08:01.594Z,3.98
2018-10-19T06:10:30.272Z,4.09
2018-10-19T06:12:58.850Z,4.21
2018-10-19T06:15:28.487Z,4.20
2018-10-19T06:17:57.970Z,4.31
2018-10-19T06:20:26.590Z,4.31
2018-10-19T06:22:56.276Z,4.37
2018-10-19T06:25:25.010Z,4.44
2018-10-19T06:27:54.518Z,4.52
2018-10-19T06:30:24.138Z,4.60
2018-10-19T06:32:54.755Z,4.66
2018-10-19T06:35:24.924Z,4.69
2018-10-19T06:37:53.745Z,4.72
2018-10-19T06:40:24.278Z,4.79
2018-10-19T06:42:52.979Z,4.86
2018-10-19T06:45:23.085Z,4.90
2018-10-19T06:47:52.386Z,4.93
2018-10-19T06:50:20.985Z,4.95
2018-10-19T06:52:52.240Z,4.97
2018-10-19T06:55:20.861Z,5.00
2018-10-19T06:57:51.478Z,5.05
2018-10-19T07:00:22.489Z,5.08
2018-10-19T07:02:52.238Z,5.13
2018-10-19T07:05:21.979Z,4.57
2018-10-19T07:07:51.579Z,5.25
2018-10-19T07:10:21.239Z,5.23
2018-10-19T07:12:50.105Z,5.29
2018-10-19T07:15:18.985Z,4.69
2018-10-19T07:17:47.474Z,5.24
2018-10-19T07:20:16.422Z,5.33
2018-10-19T07:22:44.957Z,5.39
2018-10-19T07:25:13.551Z,5.46
2018-10-19T07:27:42.742Z,5.53
2018-10-19T07:30:11.322Z,5.58
2018-10-19T07:32:40.099Z,5.19
2018-10-19T07:35:09.030Z,5.67
2018-10-19T07:37:38.357Z,5.74
2018-10-19T07:40:07.306Z,5.81
2018-10-19T07:42:36.344Z,5.86
2018-10-19T07:45:05.079Z,5.92
2018-10-19T07:47:33.696Z,6.00
2018-10-19T07:50:02.285Z,6.10
2018-10-19T07:52:30.919Z,6.17
2018-10-19T07:54:59.722Z,6.26
2018-10-19T07:57:28.354Z,6.32
2018-10-19T07:59:57.700Z,6.37
2018-10-19T08:02:26.188Z,6.15
2018-10-19T08:04:54.882Z,6.37
2018-10-19T08:07:23.431Z,6.39
2018-10-19T08:09:52.458Z,6.42
2018-10-19T08:12:21.058Z,6.49
2018-10-19T08:14:49.586Z,6.57
2018-10-19T08:17:18.674Z,6.66
2018-10-19T08:19:47.168Z,6.74
2018-10-19T08:22:15.793Z,6.81
2018-10-19T08:24:44.662Z,6.87
2018-10-19T08:27:13.496Z,6.91
2018-10-19T08:29:42.038Z,6.98
2018-10-19T08:32:10.592Z,7.08
2018-10-19T08:34:39.442Z,7.22
2018-10-19T08:37:07.930Z,7.36
2018-10-19T08:39:36.614Z,7.46
2018-10-19T08:42:06.050Z,7.56
2018-10-19T08:44:34.675Z,7.57
2018-10-19T08:47:03.303Z,7.71
2018-10-19T08:49:31.918Z,7.80
2018-10-19T08:52:00.836Z,7.89
2018-10-19T08:54:29.414Z,8.04
2018-10-19T08:56:58.206Z,8.15
2018-10-19T08:59:26.791Z,8.28
2018-10-19T09:01:55.538Z,8.46
2018-10-19T09:04:24.205Z,8.59
2018-10-19T09:06:52.893Z,8.66
2018-10-19T09:09:21.372Z,8.71
2018-10-19T09:11:49.922Z,8.76
2018-10-19T09:15:01.170Z,8.82
2018-10-19T09:17:29.796Z,8.87
2018-10-19T09:19:58.489Z,8.91
2018-10-19T09:22:26.998Z,8.97
2018-10-19T09:24:55.514Z,9.12
2018-10-19T09:27:23.971Z,9.27
2018-10-19T09:29:52.876Z,9.43
2018-10-19T09:32:21.543Z,9.55
2018-10-19T09:34:50.331Z,9.72
2018-10-19T09:37:18.996Z,9.85
2018-10-19T09:39:47.522Z,9.96
2018-10-19T09:42:16.071Z,9.94
2018-10-19T09:44:44.550Z,10.17
2018-10-19T09:47:13.571Z,10.29
2018-10-19T09:49:42.032Z,10.39
2018-10-19T09:52:10.641Z,10.48
2018-10-19T09:54:39.198Z,10.60
2018-10-19T09:57:07.960Z,10.71
2018-10-19T09:59:36.446Z,10.81
2018-10-19T10:02:05.328Z,10.90
2018-10-19T10:04:34.662Z,10.98
2018-10-19T10:07:03.207Z,11.07
2018-10-19T10:09:32.497Z,11.15
2018-10-19T10:12:00.966Z,11.26
2018-10-19T10:14:29.814Z,11.40
2018-10-19T10:16:58.356Z,11.50
2018-10-19T10:19:27.206Z,11.60
2018-10-19T10:21:55.788Z,11.70
2018-10-19T10:24:24.473Z,11.74
2018-10-19T10:26:53.022Z,11.78
2018-10-19T10:29:21.601Z,11.90
2018-10-19T10:31:50.366Z,11.98
2018-10-19T10:34:18.874Z,11.98
2018-10-19T10:36:47.605Z,11.97
2018-10-19T10:39:16.134Z,11.95
2018-10-19T10:41:44.871Z,11.95
2018-10-19T10:44:13.395Z,12.00
2018-10-19T10:46:41.958Z,12.00
2018-10-19T10:49:11.668Z,12.02
2018-10-19T10:51:40.066Z,12.06
2018-10-19T10:54:08.830Z,12.07
2018-10-19T10:56:37.307Z,12.09
2018-10-19T10:59:06.191Z,12.09
2018-10-19T11:01:34.777Z,12.09
2018-10-19T11:04:03.395Z,12.08
2018-10-19T11:06:31.926Z,12.08
2018-10-19T11:09:00.438Z,12.02
2018-10-19T11:11:30.014Z,12.08
2018-10-19T11:13:58.482Z,12.12
2018-10-19T11:16:27.379Z,12.15
2018-10-19T11:18:55.855Z,12.20
2018-10-19T11:21:24.642Z,12.17
2018-10-19T11:23:53.218Z,12.09
2018-10-19T11:26:23.245Z,12.10
2018-10-19T11:28:51.781Z,12.13
2018-10-19T11:31:20.455Z,12.03
2018-10-19T11:33:49.682Z,11.33
2018-10-19T11:36:18.194Z,12.01
2018-10-19T11:38:47.086Z,11.74
2018-10-19T11:41:15.698Z,11.90
2018-10-19T11:43:44.538Z,11.95
2018-10-19T11:46:13.065Z,11.99
2018-10-19T11:48:41.605Z,11.95
2018-10-19T11:51:10.074Z,12.06
2018-10-19T11:53:38.699Z,12.08
2018-10-19T11:56:07.626Z,12.11
2018-10-19T11:58:36.114Z,12.19
2018-10-19T12:01:05.329Z,12.21
2018-10-19T12:03:34.054Z,12.18
2018-10-19T12:06:02.615Z,12.21
2018-10-19T12:08:31.282Z,12.12
2018-10-19T12:10:59.798Z,12.02
2018-10-19T12:13:28.373Z,12.05
2018-10-19T12:15:57.000Z,12.11
2018-10-19T12:18:26.723Z,12.13
2018-10-19T12:20:55.322Z,12.21
2018-10-19T12:23:24.418Z,11.96
2018-10-19T12:25:53.090Z,12.37
2018-10-19T12:28:22.173Z,12.37
2018-10-19T12:30:50.755Z,12.42
2018-10-19T12:33:19.513Z,12.36
2018-10-19T12:35:48.070Z,12.41
2018-10-19T12:38:16.666Z,12.36
2018-10-19T12:40:45.300Z,11.99
2018-10-19T12:43:13.891Z,12.34
2018-10-19T12:46:52.125Z,12.24
2018-10-19T12:49:22.358Z,12.30
2018-10-19T12:51:50.903Z,12.25
2018-10-19T12:54:19.561Z,12.31
2018-10-19T12:56:48.080Z,12.27
2018-10-19T12:59:16.674Z,12.21
2018-10-19T13:01:45.563Z,12.18
2018-10-19T13:04:14.116Z,12.17
2018-10-19T13:06:43.034Z,12.12
2018-10-19T13:09:12.800Z,12.05
2018-10-19T13:11:41.604Z,11.99
2018-10-19T13:14:10.117Z,12.01
2018-10-19T13:16:38.809Z,12.04
2018-10-19T13:19:07.388Z,12.05
2018-10-19T13:21:35.938Z,12.05
2018-10-19T13:24:05.057Z,12.06
2018-10-19T13:28:56.157Z,11.99
2018-10-19T13:31:25.350Z,12.03
2018-10-19T13:33:53.935Z,12.05
2018-10-19T13:36:22.549Z,12.03
2018-10-19T13:38:51.137Z,12.01
2018-10-19T13:41:19.598Z,12.00
2018-10-19T13:43:48.281Z,11.98
2018-10-19T13:46:17.154Z,11.93
2018-10-19T13:48:46.097Z,11.44
2018-10-19T13:51:14.762Z,11.80
2018-10-19T13:53:43.484Z,11.79
2018-10-19T13:56:12.594Z,11.74
2018-10-19T13:58:41.323Z,11.77
2018-10-19T14:01:09.966Z,11.80
2018-10-19T14:03:38.556Z,11.80
2018-10-19T14:06:07.162Z,11.55
2018-10-19T14:08:36.414Z,11.85
2018-10-19T14:11:05.546Z,11.82
2018-10-19T14:13:34.089Z,11.80
2018-10-19T14:16:03.029Z,11.77
2018-10-19T14:18:31.502Z,11.71
2018-10-19T14:21:00.684Z,11.68
2018-10-19T14:23:29.380Z,11.69
2018-10-19T14:25:58.075Z,11.67
2018-10-19T14:28:26.628Z,11.68
2018-10-19T14:30:55.179Z,11.63
2018-10-19T14:33:24.180Z,11.14
2018-10-19T14:35:52.562Z,11.49
2018-10-19T14:38:21.544Z,11.45
2018-10-19T14:40:50.026Z,11.45
2018-10-19T14:43:18.737Z,11.42
2018-10-19T14:45:47.386Z,11.38
2018-10-19T14:48:16.018Z,11.39
2018-10-19T14:50:44.742Z,11.40
2018-10-19T14:53:13.385Z,11.39
2018-10-19T14:55:42.221Z,11.36
2018-10-19T14:58:10.718Z,11.31
2018-10-19T15:00:39.683Z,11.30
2018-10-19T15:03:08.216Z,11.24
2018-10-19T15:05:36.858Z,11.21
2018-10-19T15:08:05.468Z,11.20
2018-10-19T15:10:34.214Z,11.12
2018-10-19T15:13:02.722Z,11.08
2018-10-19T15:15:31.262Z,11.08
2018-10-19T15:18:00.123Z,11.04
2018-10-19T15:20:28.818Z,11.00
2018-10-19T15:22:57.464Z,10.96
2018-10-19T15:25:25.954Z,10.92
2018-10-19T15:27:54.620Z,10.89
2018-10-19T15:30:23.373Z,10.13
2018-10-19T15:32:51.755Z,10.80
2018-10-19T15:35:20.601Z,10.73
2018-10-19T15:37:49.144Z,10.66
2018-10-19T15:40:17.974Z,10.60
2018-10-19T15:42:46.534Z,10.54
2018-10-19T15:45:15.072Z,10.45
2018-10-19T15:47:43.652Z,10.37
2018-10-19T15:50:12.138Z,10.32
2018-10-19T15:52:40.923Z,10.25
2018-10-19T15:55:09.447Z,10.15
2018-10-19T15:57:38.314Z,10.09
2018-10-19T16:00:08.852Z,10.03
2018-10-19T16:02:37.648Z,9.93
2018-10-19T16:05:06.550Z,9.84
2018-10-19T16:07:35.220Z,9.74
2018-10-19T16:10:03.910Z,9.63
2018-10-19T16:12:32.398Z,9.54
2018-10-19T16:15:01.715Z,9.42
2018-10-19T16:17:30.243Z,9.32
2018-10-19T16:19:59.059Z,9.24
2018-10-19T16:22:27.673Z,9.17
2018-10-19T16:24:56.840Z,9.06
2018-10-19T16:27:25.588Z,8.99
2018-10-19T16:29:54.133Z,8.92
2018-10-19T16:32:22.773Z,8.86
2018-10-19T16:34:51.292Z,8.79
2018-10-19T16:37:19.888Z,8.72
2018-10-19T16:39:48.437Z,8.65
2018-10-19T16:42:17.322Z,8.59
2018-10-19T16:44:45.717Z,8.57
2018-10-19T16:47:14.184Z,8.55
2018-10-19T16:49:42.974Z,8.53
2018-10-19T16:52:11.670Z,8.53
2018-10-19T16:54:40.094Z,8.53
2018-10-19T16:57:08.657Z,8.54
2018-10-19T16:59:39.698Z,8.55
2018-10-19T17:02:08.849Z,8.54
2018-10-19T17:04:37.392Z,8.55
2018-10-19T17:07:06.307Z,8.56
2018-10-19T17:09:35.185Z,8.55
2018-10-19T17:12:03.778Z,8.56
2018-10-19T17:14:32.540Z,8.55
2018-10-19T17:17:01.139Z,8.56
2018-10-19T17:19:29.646Z,8.56
2018-10-19T17:21:58.256Z,8.54
2018-10-19T17:24:26.836Z,8.55
2018-10-19T17:26:55.547Z,8.55
2018-10-19T17:29:24.082Z,8.53
2018-10-19T17:31:52.772Z,8.23
2018-10-19T17:34:21.317Z,8.56
2018-10-19T17:36:49.931Z,8.55
2018-10-19T17:39:18.586Z,8.57
2018-10-19T17:41:47.112Z,8.57
2018-10-19T17:44:16.842Z,8.21
2018-10-19T17:46:45.426Z,8.57
2018-10-19T17:49:14.228Z,8.32
2018-10-19T17:51:42.770Z,8.59
2018-10-19T17:54:11.391Z,8.58
2018-10-19T17:56:39.897Z,8.57
2018-10-19T17:59:08.482Z,8.57
2018-10-19T18:01:37.166Z,8.59
2018-10-19T18:04:06.166Z,8.58
2018-10-19T18:06:35.050Z,8.58
2018-10-19T18:09:03.697Z,8.58
2018-10-19T18:11:33.287Z,8.58
2018-10-19T18:14:01.722Z,8.55
2018-10-19T18:16:30.567Z,8.57
2018-10-19T18:18:59.118Z,8.58
2018-10-19T18:21:27.938Z,8.61
2018-10-19T18:23:56.506Z,8.67
2018-10-19T18:26:25.278Z,8.73
2018-10-19T18:28:55.031Z,8.22
2018-10-19T18:31:23.498Z,8.76
2018-10-19T18:33:52.398Z,8.18
2018-10-19T18:36:20.861Z,8.89
2018-10-19T18:38:49.637Z,8.91
2018-10-19T18:41:18.202Z,8.95
2018-10-19T18:43:46.890Z,9.02
2018-10-19T18:46:15.554Z,9.04
2018-10-19T18:48:44.075Z,9.09
2018-10-19T18:51:12.827Z,9.09
2018-10-19T18:53:41.330Z,9.12
2018-10-19T18:56:10.346Z,8.80
2018-10-19T18:58:38.874Z,9.19
2018-10-19T19:01:07.588Z,9.24
2018-10-19T19:03:36.497Z,9.29
2018-10-19T19:06:05.390Z,9.35
2018-10-19T19:08:33.938Z,9.36
2018-10-19T19:11:02.783Z,9.37
2018-10-19T19:13:32.886Z,9.37
2018-10-19T19:16:01.713Z,9.31
2018-10-19T19:18:30.550Z,9.32
2018-10-19T19:20:59.082Z,9.39
2018-10-19T19:23:27.758Z,9.47
2018-10-19T19:26:01.746Z,9.57
2018-10-19T19:28:30.318Z,9.71
2018-10-19T19:30:58.818Z,9.82
2018-10-19T19:33:32.971Z,9.92
2018-10-19T19:36:01.692Z,9.97
2018-10-19T19:38:30.277Z,10.00
2018-10-19T19:41:04.008Z,10.04
2018-10-19T19:43:32.477Z,10.09
2018-10-19T19:46:01.322Z,10.11
2018-10-19T19:48:35.413Z,10.11
2018-10-19T19:51:03.909Z,10.16
2018-10-19T19:53:32.521Z,10.17
2018-10-19T19:56:01.110Z,10.19
2018-10-19T19:58:29.646Z,10.22
2018-10-19T20:00:58.474Z,10.24
2018-10-19T20:03:27.043Z,10.23
2018-10-19T20:05:55.854Z,9.82
2018-10-19T20:08:24.391Z,10.23
2018-10-19T20:10:53.059Z,10.26
2018-10-19T20:13:21.527Z,10.29
2018-10-19T20:15:50.018Z,10.31
2018-10-19T20:18:19.378Z,10.34
2018-10-19T20:20:47.934Z,10.35
2018-10-19T20:23:16.705Z,10.03
2018-10-19T20:25:45.263Z,10.37
2018-10-19T20:28:14.185Z,10.38
2018-10-19T20:30:42.689Z,10.37
2018-10-19T20:33:11.343Z,10.38
2018-10-19T20:35:39.922Z,10.39
2018-10-19T20:38:08.406Z,10.36
2018-10-19T20:40:37.930Z,10.40
2018-10-19T20:43:06.745Z,10.38
2018-10-19T20:45:35.526Z,10.39
2018-10-19T20:48:04.173Z,10.39
2018-10-19T20:50:33.064Z,10.41
2018-10-19T20:53:01.650Z,10.39
2018-10-19T20:55:30.315Z,10.34
2018-10-19T20:57:58.815Z,10.26
2018-10-19T21:00:27.383Z,10.18
2018-10-19T21:02:56.823Z,9.81
2018-10-19T21:05:25.291Z,10.08
2018-10-19T21:07:54.116Z,10.03
2018-10-19T21:10:22.655Z,10.00
2018-10-19T21:12:51.418Z,9.99
2018-10-19T21:15:20.014Z,9.96
2018-10-19T21:17:48.538Z,10.00
2018-10-19T21:20:17.282Z,9.92
2018-10-19T21:22:45.751Z,10.01
2018-10-19T21:25:14.592Z,9.95
2018-10-19T21:27:43.069Z,9.96
2018-10-19T21:30:12.590Z,9.94
2018-10-19T21:32:41.221Z,9.96
2018-10-19T21:35:09.963Z,9.95
2018-10-19T21:37:38.624Z,9.91
2018-10-19T21:40:07.192Z,9.89
2018-10-19T21:42:35.666Z,9.87
2018-10-19T21:45:04.378Z,9.84
2018-10-19T21:47:34.049Z,9.32
2018-10-19T21:50:02.639Z,9.81
2018-10-19T21:52:31.562Z,9.81
2018-10-19T21:55:00.070Z,9.81
2018-10-19T21:57:28.710Z,9.80
2018-10-19T21:59:57.265Z,9.80
2018-10-19T22:02:25.878Z,9.84
2018-10-19T22:04:54.560Z,9.87
2018-10-19T22:07:23.221Z,9.88
2018-10-19T22:09:51.871Z,9.90
2018-10-19T22:12:20.379Z,9.91
2018-10-19T22:14:49.271Z,9.88
2018-10-19T22:17:17.734Z,9.92
2018-10-19T22:19:46.286Z,9.92
2018-10-19T22:22:14.780Z,9.81
2018-10-19T22:24:43.341Z,9.94
2018-10-19T22:27:12.913Z,9.87
2018-10-19T22:29:41.392Z,9.99
2018-10-19T22:32:10.190Z,10.00
2018-10-19T22:34:38.721Z,10.00
2018-10-19T22:37:07.335Z,10.01
2018-10-19T22:39:35.810Z,10.01
2018-10-19T22:42:04.666Z,9.99
2018-10-19T22:44:33.714Z,9.96
2018-10-19T22:47:02.306Z,9.94
2018-10-19T22:49:31.078Z,9.95
2018-10-19T22:51:59.530Z,9.96
2018-10-19T22:54:28.605Z,9.95
2018-10-19T22:56:57.126Z,9.97
2018-10-19T22:59:25.755Z,9.98
2018-10-19T23:01:54.353Z,9.99
2018-10-19T23:04:22.902Z,10.01
2018-10-19T23:06:52.006Z,9.96
2018-10-19T23:09:20.598Z,10.01
2018-10-19T23:11:49.514Z,10.03
2018-10-19T23:14:18.038Z,10.03
2018-10-19T23:16:46.678Z,10.03
2018-10-19T23:19:15.164Z,10.03
2018-10-19T23:21:43.715Z,10.01
2018-10-19T23:24:12.278Z,9.74
2018-10-19T23:26:40.953Z,10.00
2018-10-19T23:29:10.557Z,9.96
2018-10-19T23:31:39.164Z,9.90
2018-10-19T23:34:07.828Z,9.91
2018-10-19T23:36:36.510Z,9.90
2018-10-19T23:39:07.718Z,9.88
2018-10-19T23:41:36.336Z,9.84
2018-10-19T23:44:05.110Z,9.83
2018-10-19T23:46:33.665Z,9.80
2018-10-19T23:49:02.342Z,9.78
2018-10-19T23:51:30.868Z,9.56
2018-10-19T23:53:59.344Z,9.77
2018-10-19T23:56:28.258Z,9.76
2018-10-19T23:58:56.874Z,9.77
